EDDP Airport Information

Runway Information
Runway 08L Length 11811 ft width 148 ft
Elevation 418 ft Threshold 0 ft Heading 86
Runway 26R Length 11811 ft Width 148 ft
Elevation 448 ft Threshold 0 ft Heading 266
Runway 08R Length 11811 ft width 198 ft
Elevation 0 ft Threshold 0 ft Heading 86
Runway 26L Length 11811 ft Width 198 ft
Elevation 0 ft Threshold 0 ft Heading 266
Airport Frequencies
Type APP Name MUNCHEN RA Frequency 124.175 MHZ
Type ATIS Name ATIS Frequency 123.95 MHZ
Type GND Name GND Frequency 121.8 MHZ
Type INFO Name MUNCHEN IN Frequency 125.8 MHZ
Type TWR Name TWR Frequency 121.1 MHZ
Airport Navaids
Type DME Name Leipzig South Frequency 112150 KHZ
Type VOR-DME Name Leipzig Frequency 115850 KHZ
Type DME Name Leipzig North Frequency 113500 KHZ
Type NDB Name Leipzig Frequency 357 KHZ
Type NDB Name Leipzig Frequency 434 KHZ
Type NDB Name Leipzig Frequency 340 KHZ
Airport Weather Information & NOTAM
ADDS - METARS form results

(2301 UTC 27 September 2020)
Data provider http://aviationweather.gov/metar/data/
 
METAR text: EDDP 272250Z 18005KT CAVOK 10/07 Q1009 NOSIG
Conditions at: EDDP (LEIPZIG/SCHKEUDI, DE) observed 2250 UTC 27 September 2020
Temperature: 10.0°C (50°F)
Dewpoint: 7.0°C (45°F) [RH = 82%]
Pressure (altimeter): 29.79 inches Hg (1009.0 mb)
Winds: from the S (180 degrees) at 6 MPH (5 knots; 2.6 m/s)
Visibility: 6 or more miles (10+ km)
Ceiling: ceiling and visibility are OK
Clouds: unknown
Weather: no significant weather observed at this time

METAR text: EDDP 272220Z 17006KT CAVOK 10/08 Q1009 NOSIG
Conditions at: EDDP (LEIPZIG/SCHKEUDI, DE) observed 2220 UTC 27 September 2020
Temperature: 10.0°C (50°F)
Dewpoint: 8.0°C (46°F) [RH = 87%]
Pressure (altimeter): 29.79 inches Hg (1009.0 mb)
Winds: from the S (170 degrees) at 7 MPH (6 knots; 3.1 m/s)
Visibility: 6 or more miles (10+ km)
Ceiling: ceiling and visibility are OK
Clouds: unknown
Weather: no significant weather observed at this time

Forecast for: EDDP (LEIPZIG/SCHKEUDI, DE)
Text: TAF EDDP 271700Z 2718/2818 20005KT 9999 BKN040
Forecast period: 1800 UTC 27 September 2020 to 1800 UTC 28 September 2020
Forecast type: FROM: standard forecast or significant change
Winds: from the SSW (200 degrees) at 6 MPH (5 knots; 2.6 m/s)
Visibility: 6 or more miles (10+ km)
Ceiling: 4000 feet AGL
Clouds: broken clouds at 4000 feet AGL
Weather: no significant weather forecast for this period